sensor_id;sensor_type;location;lat;lon;timestamp;pressure;altitude;pressure_sealevel;temperature;humidity
9035;BME280;4552;43.422;24.592;2023-01-19T00:00:48;98727.41;;;17.59;43.74
9035;BME280;4552;43.422;24.592;2023-01-19T00:03:15;98735.16;;;17.48;44.41
9035;BME280;4552;43.422;24.592;2023-01-19T00:05:42;98735.06;;;17.49;44.26
9035;BME280;4552;43.422;24.592;2023-01-19T00:08:12;98723.41;;;17.38;44.21
9035;BME280;4552;43.422;24.592;2023-01-19T00:10:44;98742.47;;;17.43;44.77
9035;BME280;4552;43.422;24.592;2023-01-19T00:13:11;98715.63;;;17.20;44.82
9035;BME280;4552;43.422;24.592;2023-01-19T00:15:38;98736.97;;;17.31;44.67
9035;BME280;4552;43.422;24.592;2023-01-19T00:18:12;98721.19;;;17.30;44.77
9035;BME280;4552;43.422;24.592;2023-01-19T00:20:39;98714.94;;;17.17;44.80
9035;BME280;4552;43.422;24.592;2023-01-19T00:23:07;98733.97;;;17.23;45.06
9035;BME280;4552;43.422;24.592;2023-01-19T00:25:37;98731.88;;;17.28;44.88
9035;BME280;4552;43.422;24.592;2023-01-19T00:28:08;98735.06;;;17.19;45.65
9035;BME280;4552;43.422;24.592;2023-01-19T00:30:36;98740.06;;;17.24;45.50
9035;BME280;4552;43.422;24.592;2023-01-19T00:33:03;98728.44;;;17.12;45.77
9035;BME280;4552;43.422;24.592;2023-01-19T00:35:30;98743.38;;;17.13;45.75
9035;BME280;4552;43.422;24.592;2023-01-19T00:37:58;98732.03;;;17.11;45.64
9035;BME280;4552;43.422;24.592;2023-01-19T00:40:27;98722.34;;;16.96;46.04
9035;BME280;4552;43.422;24.592;2023-01-19T00:42:55;98744.19;;;17.00;46.82
9035;BME280;4552;43.422;24.592;2023-01-19T00:45:23;98742.41;;;17.00;47.12
9035;BME280;4552;43.422;24.592;2023-01-19T00:47:50;98757.22;;;16.73;47.65
9035;BME280;4552;43.422;24.592;2023-01-19T00:50:22;98753.38;;;16.63;48.63
9035;BME280;4552;43.422;24.592;2023-01-19T00:52:51;98737.38;;;16.51;49.03
9035;BME280;4552;43.422;24.592;2023-01-19T00:55:18;98729.19;;;16.24;49.55
9035;BME280;4552;43.422;24.592;2023-01-19T00:57:46;98762.22;;;16.31;50.21
9035;BME280;4552;43.422;24.592;2023-01-19T01:00:16;98768.72;;;16.26;50.65
9035;BME280;4552;43.422;24.592;2023-01-19T01:02:45;98760.53;;;16.15;51.21
9035;BME280;4552;43.422;24.592;2023-01-19T01:05:12;98756.34;;;15.95;51.96
9035;BME280;4552;43.422;24.592;2023-01-19T01:07:40;98743.66;;;15.86;52.49
9035;BME280;4552;43.422;24.592;2023-01-19T01:10:10;98748.75;;;15.89;53.05
9035;BME280;4552;43.422;24.592;2023-01-19T01:12:38;98711.25;;;15.67;53.22
9035;BME280;4552;43.422;24.592;2023-01-19T01:15:10;98736.41;;;15.74;53.57
9035;BME280;4552;43.422;24.592;2023-01-19T01:17:39;98721.34;;;15.59;53.89
9035;BME280;4552;43.422;24.592;2023-01-19T01:20:14;98728.84;;;15.51;54.79
9035;BME280;4552;43.422;24.592;2023-01-19T01:22:43;98725.09;;;15.55;54.79
9035;BME280;4552;43.422;24.592;2023-01-19T01:25:12;98736.75;;;15.51;55.13
9035;BME280;4552;43.422;24.592;2023-01-19T01:27:39;98737.75;;;15.48;55.23
9035;BME280;4552;43.422;24.592;2023-01-19T01:30:08;98738.22;;;15.56;54.53
9035;BME280;4552;43.422;24.592;2023-01-19T01:32:36;98711.78;;;15.41;54.95
9035;BME280;4552;43.422;24.592;2023-01-19T01:35:05;98733.59;;;15.44;55.15
9035;BME280;4552;43.422;24.592;2023-01-19T01:37:34;98747.91;;;15.56;55.09
9035;BME280;4552;43.422;24.592;2023-01-19T01:40:03;98753.81;;;15.44;54.99
9035;BME280;4552;43.422;24.592;2023-01-19T01:42:32;98741.66;;;15.24;55.30
9035;BME280;4552;43.422;24.592;2023-01-19T01:45:02;98750.03;;;15.32;55.06
9035;BME280;4552;43.422;24.592;2023-01-19T01:47:33;98715.59;;;15.18;55.38
9035;BME280;4552;43.422;24.592;2023-01-19T01:50:09;98709.84;;;15.27;54.80
9035;BME280;4552;43.422;24.592;2023-01-19T01:52:44;98738.00;;;15.44;53.71
9035;BME280;4552;43.422;24.592;2023-01-19T01:55:15;98731.69;;;15.79;52.38
9035;BME280;4552;43.422;24.592;2023-01-19T01:57:47;98735.56;;;15.89;52.15
9035;BME280;4552;43.422;24.592;2023-01-19T02:00:17;98738.88;;;16.08;51.39
9035;BME280;4552;43.422;24.592;2023-01-19T02:02:47;98746.13;;;16.20;50.89
9035;BME280;4552;43.422;24.592;2023-01-19T02:05:21;98742.22;;;16.27;50.77
9035;BME280;4552;43.422;24.592;2023-01-19T02:07:55;98733.00;;;16.34;50.46
9035;BME280;4552;43.422;24.592;2023-01-19T02:10:42;98736.03;;;16.44;50.31
9035;BME280;4552;43.422;24.592;2023-01-19T02:13:28;98733.44;;;16.42;50.24
9035;BME280;4552;43.422;24.592;2023-01-19T02:15:59;98733.44;;;16.42;50.34
9035;BME280;4552;43.422;24.592;2023-01-19T02:18:29;98729.09;;;16.41;50.18
9035;BME280;4552;43.422;24.592;2023-01-19T02:21:05;98733.44;;;16.42;49.79
9035;BME280;4552;43.422;24.592;2023-01-19T02:23:42;98725.00;;;16.36;50.12
9035;BME280;4552;43.422;24.592;2023-01-19T02:26:12;98710.00;;;16.36;50.14
9035;BME280;4552;43.422;24.592;2023-01-19T02:28:42;98738.72;;;16.42;50.43
9035;BME280;4552;43.422;24.592;2023-01-19T02:31:11;98735.94;;;16.45;50.41
9035;BME280;4552;43.422;24.592;2023-01-19T02:33:41;98742.22;;;16.43;50.08
9035;BME280;4552;43.422;24.592;2023-01-19T02:36:11;98717.84;;;16.22;50.74
9035;BME280;4552;43.422;24.592;2023-01-19T02:38:44;98737.84;;;16.42;50.36
9035;BME280;4552;43.422;24.592;2023-01-19T02:41:13;98740.66;;;16.39;50.41
9035;BME280;4552;43.422;24.592;2023-01-19T02:43:42;98740.34;;;16.29;50.97
9035;BME280;4552;43.422;24.592;2023-01-19T02:46:12;98720.25;;;16.27;51.03
9035;BME280;4552;43.422;24.592;2023-01-19T02:48:40;98737.94;;;16.25;51.51
9035;BME280;4552;43.422;24.592;2023-01-19T02:51:11;98704.31;;;15.97;51.70
9035;BME280;4552;43.422;24.592;2023-01-19T02:53:56;98727.88;;;16.00;51.73
9035;BME280;4552;43.422;24.592;2023-01-19T02:56:36;98711.47;;;15.95;52.02
9035;BME280;4552;43.422;24.592;2023-01-19T02:59:12;98721.78;;;16.00;51.79
9035;BME280;4552;43.422;24.592;2023-01-19T03:01:52;98736.75;;;15.99;51.97
9035;BME280;4552;43.422;24.592;2023-01-19T03:04:28;98728.13;;;15.96;52.19
9035;BME280;4552;43.422;24.592;2023-01-19T03:07:04;98709.69;;;15.80;52.09
9035;BME280;4552;43.422;24.592;2023-01-19T03:09:41;98746.78;;;15.93;52.44
9035;BME280;4552;43.422;24.592;2023-01-19T03:12:19;98737.59;;;15.84;52.54
9035;BME280;4552;43.422;24.592;2023-01-19T03:14:52;98714.50;;;15.72;52.63
9035;BME280;4552;43.422;24.592;2023-01-19T03:17:22;98729.94;;;15.80;52.67
9035;BME280;4552;43.422;24.592;2023-01-19T03:19:49;98731.44;;;15.84;52.05
9035;BME280;4552;43.422;24.592;2023-01-19T03:22:22;98746.44;;;15.83;52.26
9035;BME280;4552;43.422;24.592;2023-01-19T03:24:54;98755.63;;;15.76;52.34
9035;BME280;4552;43.422;24.592;2023-01-19T03:27:27;98753.59;;;15.81;52.22
9035;BME280;4552;43.422;24.592;2023-01-19T03:29:58;98744.06;;;15.79;52.14
9035;BME280;4552;43.422;24.592;2023-01-19T03:32:31;98732.19;;;15.70;52.25
9035;BME280;4552;43.422;24.592;2023-01-19T03:35:03;98734.34;;;15.79;52.04
9035;BME280;4552;43.422;24.592;2023-01-19T03:37:39;98744.91;;;15.79;52.18
9035;BME280;4552;43.422;24.592;2023-01-19T03:40:13;98727.19;;;15.81;51.74
9035;BME280;4552;43.422;24.592;2023-01-19T03:42:41;98719.28;;;15.81;51.51
9035;BME280;4552;43.422;24.592;2023-01-19T03:45:11;98714.97;;;15.80;51.39
9035;BME280;4552;43.422;24.592;2023-01-19T03:47:41;98728.72;;;15.85;51.13
9035;BME280;4552;43.422;24.592;2023-01-19T03:50:13;98714.34;;;15.75;51.16
9035;BME280;4552;43.422;24.592;2023-01-19T03:52:44;98738.78;;;15.94;50.58
9035;BME280;4552;43.422;24.592;2023-01-19T03:55:13;98719.28;;;15.81;50.41
9035;BME280;4552;43.422;24.592;2023-01-19T03:57:40;98715.88;;;15.79;50.79
9035;BME280;4552;43.422;24.592;2023-01-19T04:00:10;98743.16;;;15.95;50.37
9035;BME280;4552;43.422;24.592;2023-01-19T04:02:38;98748.44;;;15.95;50.91
9035;BME280;4552;43.422;24.592;2023-01-19T04:05:07;98724.41;;;15.84;50.35
9035;BME280;4552;43.422;24.592;2023-01-19T04:07:35;98722.88;;;15.80;50.99
9035;BME280;4552;43.422;24.592;2023-01-19T04:10:03;98743.31;;;15.92;50.70
9035;BME280;4552;43.422;24.592;2023-01-19T04:12:32;98735.28;;;15.78;50.84
9035;BME280;4552;43.422;24.592;2023-01-19T04:14:59;98734.41;;;15.78;50.97
9035;BME280;4552;43.422;24.592;2023-01-19T04:17:27;98729.56;;;15.70;51.16
9035;BME280;4552;43.422;24.592;2023-01-19T04:19:54;98742.28;;;15.62;50.97
9035;BME280;4552;43.422;24.592;2023-01-19T04:22:21;98748.66;;;15.75;50.96
9035;BME280;4552;43.422;24.592;2023-01-19T04:24:48;98749.50;;;15.76;51.20
9035;BME280;4552;43.422;24.592;2023-01-19T04:27:16;98760.34;;;15.70;50.94
9035;BME280;4552;43.422;24.592;2023-01-19T04:29:44;98742.84;;;15.34;51.70
9035;BME280;4552;43.422;24.592;2023-01-19T04:32:12;98747.78;;;15.25;52.12
9035;BME280;4552;43.422;24.592;2023-01-19T04:34:39;98726.78;;;15.06;52.58
9035;BME280;4552;43.422;24.592;2023-01-19T04:37:07;98716.63;;;14.99;52.09
9035;BME280;4552;43.422;24.592;2023-01-19T04:39:51;98726.06;;;15.03;52.06
9035;BME280;4552;43.422;24.592;2023-01-19T04:42:27;98733.75;;;15.07;51.80
9035;BME280;4552;43.422;24.592;2023-01-19T04:44:55;98742.81;;;15.19;51.34
9035;BME280;4552;43.422;24.592;2023-01-19T04:47:23;98738.31;;;15.21;51.31
9035;BME280;4552;43.422;24.592;2023-01-19T04:49:50;98747.47;;;15.31;50.97
9035;BME280;4552;43.422;24.592;2023-01-19T04:52:21;98762.84;;;15.40;50.27
9035;BME280;4552;43.422;24.592;2023-01-19T04:54:49;98733.03;;;15.21;50.45
9035;BME280;4552;43.422;24.592;2023-01-19T04:57:16;98752.28;;;15.40;50.30
9035;BME280;4552;43.422;24.592;2023-01-19T04:59:45;98742.78;;;15.36;49.67
9035;BME280;4552;43.422;24.592;2023-01-19T05:02:21;98780.50;;;15.55;49.89
9035;BME280;4552;43.422;24.592;2023-01-19T05:04:48;98761.09;;;15.39;49.90
9035;BME280;4552;43.422;24.592;2023-01-19T05:07:16;98774.91;;;15.44;49.96
9035;BME280;4552;43.422;24.592;2023-01-19T05:09:43;98769.47;;;15.47;49.74
9035;BME280;4552;43.422;24.592;2023-01-19T05:12:11;98765.56;;;15.38;49.90
9035;BME280;4552;43.422;24.592;2023-01-19T05:14:38;98794.53;;;15.55;49.73
9035;BME280;4552;43.422;24.592;2023-01-19T05:17:05;98776.31;;;15.34;49.48
9035;BME280;4552;43.422;24.592;2023-01-19T05:19:35;98779.09;;;15.31;50.00
9035;BME280;4552;43.422;24.592;2023-01-19T05:22:02;98771.03;;;15.34;49.76
9035;BME280;4552;43.422;24.592;2023-01-19T05:24:30;98797.19;;;15.38;50.23
9035;BME280;4552;43.422;24.592;2023-01-19T05:26:57;98810.84;;;15.46;49.72
9035;BME280;4552;43.422;24.592;2023-01-19T05:29:24;98787.56;;;15.37;49.43
9035;BME280;4552;43.422;24.592;2023-01-19T05:31:51;98814.09;;;15.51;49.76
9035;BME280;4552;43.422;24.592;2023-01-19T05:34:20;98803.59;;;15.50;49.51
9035;BME280;4552;43.422;24.592;2023-01-19T05:36:50;98817.25;;;15.58;49.19
9035;BME280;4552;43.422;24.592;2023-01-19T05:39:18;98800.75;;;15.37;49.53
9035;BME280;4552;43.422;24.592;2023-01-19T05:41:45;98820.38;;;15.49;49.53
9035;BME280;4552;43.422;24.592;2023-01-19T05:44:13;98819.81;;;15.42;49.53
9035;BME280;4552;43.422;24.592;2023-01-19T05:46:40;98832.25;;;15.40;49.58
9035;BME280;4552;43.422;24.592;2023-01-19T05:49:08;98808.25;;;15.28;49.84
9035;BME280;4552;43.422;24.592;2023-01-19T05:51:35;98815.78;;;15.35;49.60
9035;BME280;4552;43.422;24.592;2023-01-19T05:54:07;98814.63;;;15.41;49.55
9035;BME280;4552;43.422;24.592;2023-01-19T05:56:35;98790.63;;;15.28;49.95
9035;BME280;4552;43.422;24.592;2023-01-19T05:59:04;98823.41;;;15.41;49.57
9035;BME280;4552;43.422;24.592;2023-01-19T06:01:34;98827.03;;;15.39;49.87
9035;BME280;4552;43.422;24.592;2023-01-19T06:04:04;98829.31;;;15.46;49.55
9035;BME280;4552;43.422;24.592;2023-01-19T06:06:31;98824.63;;;15.51;49.66
9035;BME280;4552;43.422;24.592;2023-01-19T06:08:58;98818.53;;;15.51;49.51
9035;BME280;4552;43.422;24.592;2023-01-19T06:11:27;98810.31;;;15.40;49.42
9035;BME280;4552;43.422;24.592;2023-01-19T06:13:54;98793.66;;;15.21;50.01
9035;BME280;4552;43.422;24.592;2023-01-19T06:16:22;98807.75;;;15.38;49.85
9035;BME280;4552;43.422;24.592;2023-01-19T06:18:49;98805.16;;;15.37;50.19
9035;BME280;4552;43.422;24.592;2023-01-19T06:21:18;98795.06;;;15.28;49.79
9035;BME280;4552;43.422;24.592;2023-01-19T06:23:45;98818.53;;;15.51;49.74
9035;BME280;4552;43.422;24.592;2023-01-19T06:26:12;98813.09;;;15.54;49.49
9035;BME280;4552;43.422;24.592;2023-01-19T06:28:41;98811.69;;;15.47;49.53
9035;BME280;4552;43.422;24.592;2023-01-19T06:31:09;98787.47;;;15.39;49.30
9035;BME280;4552;43.422;24.592;2023-01-19T06:33:37;98809.50;;;15.55;48.82
9035;BME280;4552;43.422;24.592;2023-01-19T06:36:04;98819.34;;;15.69;49.06
9035;BME280;4552;43.422;24.592;2023-01-19T06:38:32;98815.38;;;15.77;48.83
9035;BME280;4552;43.422;24.592;2023-01-19T06:40:59;98822.03;;;15.84;48.58
9035;BME280;4552;43.422;24.592;2023-01-19T06:43:29;98833.78;;;15.94;48.39
9035;BME280;4552;43.422;24.592;2023-01-19T06:45:58;98802.69;;;15.84;48.38
9035;BME280;4552;43.422;24.592;2023-01-19T06:48:26;98821.38;;;15.96;48.15
9035;BME280;4552;43.422;24.592;2023-01-19T06:50:53;98830.38;;;16.09;47.92
9035;BME280;4552;43.422;24.592;2023-01-19T06:53:21;98827.06;;;16.21;47.74
9035;BME280;4552;43.422;24.592;2023-01-19T06:56:01;98836.25;;;16.30;47.44
9035;BME280;4552;43.422;24.592;2023-01-19T06:58:31;98818.56;;;16.32;47.34
9035;BME280;4552;43.422;24.592;2023-01-19T07:01:14;98824.63;;;16.49;47.02
9035;BME280;4552;43.422;24.592;2023-01-19T07:03:41;98811.41;;;16.49;46.62
9035;BME280;4552;43.422;24.592;2023-01-19T07:06:16;98825.06;;;16.57;46.59
9035;BME280;4552;43.422;24.592;2023-01-19T07:08:49;98817.75;;;16.62;46.27
9035;BME280;4552;43.422;24.592;2023-01-19T07:11:17;98832.38;;;16.83;46.28
9035;BME280;4552;43.422;24.592;2023-01-19T07:13:45;98848.78;;;16.74;46.84
9035;BME280;4552;43.422;24.592;2023-01-19T07:16:19;98829.41;;;16.58;47.10
9035;BME280;4552;43.422;24.592;2023-01-19T07:18:48;98821.91;;;16.66;46.58
9035;BME280;4552;43.422;24.592;2023-01-19T07:21:23;98835.03;;;16.83;46.70
9035;BME280;4552;43.422;24.592;2023-01-19T07:23:51;98847.56;;;16.95;46.34
9035;BME280;4552;43.422;24.592;2023-01-19T07:26:22;98836.97;;;16.95;46.40
9035;BME280;4552;43.422;24.592;2023-01-19T07:29:06;98831.44;;;17.00;46.02
9035;BME280;4552;43.422;24.592;2023-01-19T07:31:37;98832.63;;;17.10;46.07
9035;BME280;4552;43.422;24.592;2023-01-19T07:34:04;98828.31;;;17.23;45.96
9035;BME280;4552;43.422;24.592;2023-01-19T07:36:47;98835.88;;;17.29;45.65
9035;BME280;4552;43.422;24.592;2023-01-19T07:39:18;98835.69;;;17.48;45.10
9035;BME280;4552;43.422;24.592;2023-01-19T07:41:46;98841.50;;;17.54;44.66
9035;BME280;4552;43.422;24.592;2023-01-19T07:44:14;98850.47;;;17.66;44.72
9035;BME280;4552;43.422;24.592;2023-01-19T07:46:43;98818.03;;;17.62;44.38
9035;BME280;4552;43.422;24.592;2023-01-19T07:49:10;98827.91;;;17.74;44.66
9035;BME280;4552;43.422;24.592;2023-01-19T07:51:37;98816.09;;;17.80;44.38
9035;BME280;4552;43.422;24.592;2023-01-19T07:54:05;98847.59;;;17.98;44.02
9035;BME280;4552;43.422;24.592;2023-01-19T07:56:32;98845.34;;;18.06;43.68
9035;BME280;4552;43.422;24.592;2023-01-19T08:05:02;98854.56;;;18.43;43.13
9035;BME280;4552;43.422;24.592;2023-01-19T08:10:06;98848.47;;;18.55;42.54
9035;BME280;4552;43.422;24.592;2023-01-19T08:12:38;98827.28;;;18.55;42.29
9035;BME280;4552;43.422;24.592;2023-01-19T08:15:07;98832.34;;;18.72;41.87
9035;BME280;4552;43.422;24.592;2023-01-19T08:17:35;98852.94;;;18.95;42.24
9035;BME280;4552;43.422;24.592;2023-01-19T08:20:05;98838.72;;;18.96;41.87
9035;BME280;4552;43.422;24.592;2023-01-19T08:22:33;98854.19;;;19.16;41.18
9035;BME280;4552;43.422;24.592;2023-01-19T08:25:00;98858.31;;;19.20;41.15
9035;BME280;4552;43.422;24.592;2023-01-19T08:27:29;98870.31;;;19.40;41.03
9035;BME280;4552;43.422;24.592;2023-01-19T08:30:17;98875.00;;;19.49;40.71
9035;BME280;4552;43.422;24.592;2023-01-19T08:33:38;98867.81;;;19.63;40.15
9035;BME280;4552;43.422;24.592;2023-01-19T08:39:05;98839.78;;;19.59;39.02
9035;BME280;4552;43.422;24.592;2023-01-19T08:41:33;98867.13;;;19.86;39.52
9035;BME280;4552;43.422;24.592;2023-01-19T08:44:00;98858.94;;;19.89;38.99
9035;BME280;4552;43.422;24.592;2023-01-19T08:46:28;98837.91;;;19.86;37.77
9035;BME280;4552;43.422;24.592;2023-01-19T08:48:55;98857.66;;;19.95;37.34
9035;BME280;4552;43.422;24.592;2023-01-19T08:51:22;98860.75;;;20.01;37.20
9035;BME280;4552;43.422;24.592;2023-01-19T08:53:49;98843.00;;;20.14;36.70
9035;BME280;4552;43.422;24.592;2023-01-19T08:56:18;98849.84;;;20.18;36.57
9035;BME280;4552;43.422;24.592;2023-01-19T08:58:46;98875.34;;;20.33;36.33
9035;BME280;4552;43.422;24.592;2023-01-19T09:01:13;98867.47;;;20.44;36.69
9035;BME280;4552;43.422;24.592;2023-01-19T09:03:41;98857.06;;;20.41;36.50
9035;BME280;4552;43.422;24.592;2023-01-19T09:06:09;98835.34;;;20.47;36.09
9035;BME280;4552;43.422;24.592;2023-01-19T09:08:37;98849.91;;;20.42;36.13
9035;BME280;4552;43.422;24.592;2023-01-19T09:11:08;98872.13;;;20.53;35.86
9035;BME280;4552;43.422;24.592;2023-01-19T09:13:40;98841.69;;;20.57;35.50
9035;BME280;4552;43.422;24.592;2023-01-19T09:16:08;98863.59;;;20.74;35.57
9035;BME280;4552;43.422;24.592;2023-01-19T09:18:37;98833.78;;;20.69;35.10
9035;BME280;4552;43.422;24.592;2023-01-19T09:21:04;98848.66;;;20.71;35.29
9035;BME280;4552;43.422;24.592;2023-01-19T09:23:45;98845.00;;;20.61;35.52
9035;BME280;4552;43.422;24.592;2023-01-19T09:26:21;98854.09;;;20.70;35.55
9035;BME280;4552;43.422;24.592;2023-01-19T09:28:52;98814.88;;;20.60;34.69
9035;BME280;4552;43.422;24.592;2023-01-19T09:31:19;98815.28;;;20.67;35.13
9035;BME280;4552;43.422;24.592;2023-01-19T09:33:48;98824.69;;;20.84;34.79
9035;BME280;4552;43.422;24.592;2023-01-19T09:36:16;98826.13;;;20.77;35.12
9035;BME280;4552;43.422;24.592;2023-01-19T09:38:43;98831.00;;;20.83;35.17
9035;BME280;4552;43.422;24.592;2023-01-19T09:41:16;98827.75;;;21.03;34.71
9035;BME280;4552;43.422;24.592;2023-01-19T09:43:47;98802.84;;;20.91;34.72
9035;BME280;4552;43.422;24.592;2023-01-19T09:46:23;98784.78;;;20.96;34.48
9035;BME280;4552;43.422;24.592;2023-01-19T09:48:57;98790.75;;;21.11;34.37
9035;BME280;4552;43.422;24.592;2023-01-19T09:51:32;98813.38;;;21.29;34.44
9035;BME280;4552;43.422;24.592;2023-01-19T09:54:05;98806.38;;;21.15;34.55
9035;BME280;4552;43.422;24.592;2023-01-19T09:56:35;98790.56;;;21.25;34.77
9035;BME280;4552;43.422;24.592;2023-01-19T09:59:16;98787.50;;;21.42;33.34
9035;BME280;4552;43.422;24.592;2023-01-19T10:04:40;98790.03;;;21.43;33.60
9035;BME280;4552;43.422;24.592;2023-01-19T10:07:15;98761.38;;;21.47;32.35
9035;BME280;4552;43.422;24.592;2023-01-19T10:10:04;98767.63;;;21.35;33.99
9035;BME280;4552;43.422;24.592;2023-01-19T10:12:51;98759.38;;;21.27;33.26
9035;BME280;4552;43.422;24.592;2023-01-19T10:15:30;98746.56;;;21.32;33.08
9035;BME280;4552;43.422;24.592;2023-01-19T10:18:11;98742.03;;;21.56;32.72
9035;BME280;4552;43.422;24.592;2023-01-19T10:20:42;98722.75;;;21.52;32.11
9035;BME280;4552;43.422;24.592;2023-01-19T10:23:22;98746.97;;;21.49;32.62
9035;BME280;4552;43.422;24.592;2023-01-19T10:25:53;98736.53;;;21.46;32.34
9035;BME280;4552;43.422;24.592;2023-01-19T10:28:29;98720.09;;;21.52;32.09
9035;BME280;4552;43.422;24.592;2023-01-19T10:31:18;98693.97;;;21.57;31.21
9035;BME280;4552;43.422;24.592;2023-01-19T10:33:51;98691.41;;;21.56;30.94
9035;BME280;4552;43.422;24.592;2023-01-19T10:36:20;98690.50;;;21.79;30.82
9035;BME280;4552;43.422;24.592;2023-01-19T10:38:50;98686.69;;;21.70;30.81
9035;BME280;4552;43.422;24.592;2023-01-19T10:41:22;98689.50;;;21.80;30.45
9035;BME280;4552;43.422;24.592;2023-01-19T10:44:01;98687.09;;;21.99;30.01
9035;BME280;4552;43.422;24.592;2023-01-19T10:46:35;98665.53;;;21.80;29.84
9035;BME280;4552;43.422;24.592;2023-01-19T10:49:21;98660.22;;;21.80;30.20
9035;BME280;4552;43.422;24.592;2023-01-19T10:51:49;98669.75;;;22.04;30.17
9035;BME280;4552;43.422;24.592;2023-01-19T10:54:18;98648.66;;;22.12;29.54
9035;BME280;4552;43.422;24.592;2023-01-19T10:56:50;98665.72;;;22.10;29.88
9035;BME280;4552;43.422;24.592;2023-01-19T10:59:46;98688.03;;;22.31;29.88
9035;BME280;4552;43.422;24.592;2023-01-19T11:02:17;98684.25;;;22.22;30.25
9035;BME280;4552;43.422;24.592;2023-01-19T11:04:53;98664.56;;;21.92;30.18
9035;BME280;4552;43.422;24.592;2023-01-19T11:07:26;98663.34;;;21.85;30.07
9035;BME280;4552;43.422;24.592;2023-01-19T11:10:15;98685.53;;;21.85;30.50
9035;BME280;4552;43.422;24.592;2023-01-19T11:12:57;98680.44;;;21.82;30.56
9035;BME280;4552;43.422;24.592;2023-01-19T11:15:39;98672.09;;;21.87;29.72
9035;BME280;4552;43.422;24.592;2023-01-19T11:18:26;98667.94;;;21.94;30.25
9035;BME280;4552;43.422;24.592;2023-01-19T11:21:21;98654.13;;;21.89;30.02
9035;BME280;4552;43.422;24.592;2023-01-19T11:23:56;98665.28;;;22.05;30.28
9035;BME280;4552;43.422;24.592;2023-01-19T11:26:27;98660.19;;;22.02;30.19
9035;BME280;4552;43.422;24.592;2023-01-19T11:28:58;98667.69;;;22.08;29.36
9035;BME280;4552;43.422;24.592;2023-01-19T11:31:42;98659.22;;;22.14;29.31
9035;BME280;4552;43.422;24.592;2023-01-19T11:34:31;98665.59;;;22.22;29.22
